Time;durP1;ratioP1;P1;durP2;ratioP2;P2;SDS_P1;SDS_P2;PMS_P1;PMS_P2;Temp;Humidity;BMP_temperature;BMP_pressure;BME280_temperature;BME280_humidity;BME280_pressure;Samples;Min_cycle;Max_cycle;Signal;HPM_P1;HPM_P2
2021/12/04 00:00:16;;;;;;;20.50;7.25;;;;;;;1.66;74.43;96985.53;4968971;28;20051;-53
2021/12/04 00:02:42;;;;;;;19.20;5.75;;;;;;;1.90;74.22;96974.69;4969855;28;20031;-53
2021/12/04 00:05:08;;;;;;;14.65;5.60;;;;;;;1.77;74.54;96977.59;4969113;28;20770;-51
2021/12/04 00:07:35;;;;;;;17.45;5.93;;;;;;;1.92;73.91;96972.91;4970619;28;20018;-55
2021/12/04 00:10:03;;;;;;;15.57;5.50;;;;;;;1.78;74.80;96974.94;4968288;28;20158;-52
2021/12/04 00:12:33;;;;;;;17.85;6.10;;;;;;;2.05;73.79;96975.22;4971011;28;20543;-53
2021/12/04 00:15:00;;;;;;;20.05;6.20;;;;;;;1.66;75.13;96965.81;4970217;28;20056;-52
2021/12/04 00:17:27;;;;;;;19.38;6.30;;;;;;;2.03;75.80;96964.97;4970450;28;20038;-53
2021/12/04 00:19:53;;;;;;;18.77;5.80;;;;;;;1.94;76.13;96965.19;4970885;28;20065;-52
2021/12/04 00:22:19;;;;;;;20.80;6.63;;;;;;;2.14;75.16;96951.00;4972284;28;20468;-53
2021/12/04 00:24:45;;;;;;;18.02;5.95;;;;;;;1.82;75.69;96944.88;4972293;28;20363;-53
2021/12/04 00:27:11;;;;;;;17.98;6.13;;;;;;;1.98;76.00;96950.53;4969882;28;20065;-53
2021/12/04 00:29:36;;;;;;;17.23;6.30;;;;;;;1.97;74.72;96939.41;4969963;28;20724;-53
2021/12/04 00:32:09;;;;;;;18.33;6.32;;;;;;;1.62;76.06;96943.63;4970953;28;20503;-53
2021/12/04 00:34:38;;;;;;;16.60;6.07;;;;;;;2.16;75.01;96931.22;4966433;28;20038;-54
2021/12/04 00:37:31;;;;;;;15.63;6.00;;;;;;;2.02;74.61;96926.41;4967638;28;20611;-53
2021/12/04 00:50:52;;;;;;;19.02;6.22;;;;;;;1.83;77.34;96916.56;4968324;28;20049;-54
2021/12/04 00:53:17;;;;;;;18.73;6.97;;;;;;;1.19;78.46;96912.88;4970190;28;20026;-52
2021/12/04 00:55:43;;;;;;;16.45;6.60;;;;;;;1.45;79.49;96904.59;4973724;28;20122;-53
2021/12/04 00:58:08;;;;;;;16.38;6.80;;;;;;;1.45;78.46;96895.19;4974648;28;20027;-55
2021/12/04 01:00:34;;;;;;;15.63;5.85;;;;;;;1.07;80.00;96893.44;4972873;28;20165;-53
2021/12/04 01:02:59;;;;;;;18.45;6.88;;;;;;;1.53;78.78;96897.56;4972113;28;20026;-53
2021/12/04 01:05:25;;;;;;;19.60;7.63;;;;;;;1.63;78.70;96888.75;4971999;28;20026;-52
2021/12/04 01:07:50;;;;;;;17.33;7.32;;;;;;;1.32;79.72;96886.03;4973931;28;20030;-53
2021/12/04 01:10:15;;;;;;;16.90;7.00;;;;;;;1.66;79.52;96893.81;4971145;28;20053;-53
2021/12/04 01:12:42;;;;;;;15.68;5.88;;;;;;;1.60;82.57;96888.84;4974555;28;20109;-53
2021/12/04 01:15:08;;;;;;;16.48;6.60;;;;;;;1.59;78.61;96881.16;4970186;28;20500;-53
2021/12/04 01:17:34;;;;;;;15.68;6.38;;;;;;;1.44;79.18;96869.50;4971685;28;20027;-52
2021/12/04 01:19:59;;;;;;;19.67;7.82;;;;;;;1.16;79.02;96867.56;4972786;28;20062;-53
2021/12/04 01:22:26;;;;;;;18.85;7.70;;;;;;;1.09;79.77;96856.56;4972133;28;20063;-53
2021/12/04 01:24:52;;;;;;;15.35;6.55;;;;;;;1.36;79.64;96856.84;4970190;28;20291;-53
2021/12/04 01:27:19;;;;;;;15.55;6.13;;;;;;;1.48;82.42;96853.97;4971906;28;20039;-54
2021/12/04 01:29:44;;;;;;;19.65;7.57;;;;;;;1.82;78.75;96850.63;4971430;28;20091;-53
2021/12/04 01:32:10;;;;;;;16.00;6.75;;;;;;;1.74;78.75;96848.22;4973607;28;20072;-53
2021/12/04 01:34:37;;;;;;;17.90;7.65;;;;;;;1.18;80.02;96831.53;4973622;28;20105;-53
2021/12/04 01:37:05;;;;;;;18.25;7.55;;;;;;;1.18;81.54;96831.53;4971144;28;20508;-53
2021/12/04 01:39:31;;;;;;;17.05;4.63;;;;;;;1.29;83.84;96829.59;4972799;28;20641;-53
2021/12/04 01:41:57;;;;;;;11.52;3.80;;;;;;;1.65;85.29;96824.47;4971675;28;20070;-53
2021/12/04 01:44:22;;;;;;;16.80;6.97;;;;;;;1.64;83.12;96823.63;4973542;28;20042;-54
2021/12/04 01:46:48;;;;;;;17.80;7.00;;;;;;;1.58;82.32;96810.94;4972345;28;20799;-54
2021/12/04 01:49:15;;;;;;;15.88;6.88;;;;;;;1.22;83.50;96816.03;4976515;28;20545;-53
2021/12/04 01:51:40;;;;;;;17.73;6.47;;;;;;;1.10;84.75;96816.31;4976985;28;20051;-53
2021/12/04 01:54:06;;;;;;;19.73;7.60;;;;;;;1.25;86.33;96804.84;4972923;28;20847;-55
2021/12/04 01:56:33;;;;;;;17.25;6.93;;;;;;;0.81;88.45;96804.97;4970819;28;20229;-53
2021/12/04 01:59:00;;;;;;;20.40;7.63;;;;;;;1.35;87.96;96812.31;4972933;28;20035;-54
2021/12/04 02:01:26;;;;;;;15.75;5.90;;;;;;;1.46;89.82;96806.09;4970989;28;20035;-54
2021/12/04 02:03:51;;;;;;;21.52;8.13;;;;;;;1.15;91.32;96793.94;4972952;28;20480;-54
2021/12/04 02:06:17;;;;;;;17.67;7.25;;;;;;;1.24;90.30;96788.59;4972254;28;20058;-54
2021/12/04 02:08:43;;;;;;;17.67;7.00;;;;;;;0.81;93.98;96778.44;4972186;28;20031;-53
2021/12/04 02:11:08;;;;;;;17.08;8.02;;;;;;;0.67;94.74;96786.44;4973486;28;20101;-53
2021/12/04 02:13:34;;;;;;;21.80;8.40;;;;;;;0.89;95.64;96782.53;4973133;28;20049;-53
2021/12/04 02:16:03;;;;;;;18.95;7.28;;;;;;;0.87;95.60;96770.63;4970268;28;20035;-54
2021/12/04 02:18:29;;;;;;;18.88;7.22;;;;;;;0.94;95.79;96775.59;4972762;28;20061;-54
2021/12/04 02:20:55;;;;;;;18.30;7.43;;;;;;;0.99;95.36;96772.91;4969957;28;20518;-54
2021/12/04 02:23:20;;;;;;;20.48;7.82;;;;;;;0.87;96.92;96768.91;4972472;28;20106;-53
2021/12/04 02:25:46;;;;;;;19.10;8.10;;;;;;;0.91;96.57;96770.50;4971700;28;20182;-54
2021/12/04 02:28:12;;;;;;;18.63;7.03;;;;;;;0.98;97.57;96775.53;4974437;28;20108;-53
2021/12/04 02:30:40;;;;;;;16.55;7.30;;;;;;;0.72;96.99;96759.81;4972568;28;20062;-54
2021/12/04 02:33:13;;;;;;;18.27;7.53;;;;;;;0.46;100.00;96762.06;4972222;28;20040;-53
2021/12/04 02:35:45;;;;;;;19.70;7.38;;;;;;;0.58;100.00;96767.78;4969569;28;20038;-53
2021/12/04 02:38:10;;;;;;;19.17;7.88;;;;;;;1.03;98.53;96759.13;4975449;28;20460;-53
2021/12/04 02:40:36;;;;;;;21.63;7.22;;;;;;;0.89;97.95;96756.88;4971180;28;20493;-54
2021/12/04 02:43:01;;;;;;;15.52;6.28;;;;;;;0.60;100.00;96757.50;4970896;28;20027;-54
2021/12/04 02:45:26;;;;;;;14.77;5.72;;;;;;;0.61;100.00;96750.63;4972017;28;20041;-54
2021/12/04 02:47:52;;;;;;;17.17;7.43;;;;;;;0.85;100.00;96754.41;4971137;28;20130;-53
2021/12/04 02:50:17;;;;;;;15.05;7.15;;;;;;;1.04;99.00;96754.84;4972696;28;20027;-53
2021/12/04 02:52:44;;;;;;;11.48;5.57;;;;;;;0.68;99.94;96747.06;4970760;28;20026;-54
2021/12/04 02:55:09;;;;;;;14.90;7.03;;;;;;;0.74;99.76;96737.53;4970001;28;20617;-54
2021/12/04 02:57:39;;;;;;;15.25;7.30;;;;;;;0.42;100.00;96730.50;4971266;28;20488;-53
2021/12/04 03:00:05;;;;;;;17.23;7.22;;;;;;;0.52;100.00;96721.75;4970946;28;20034;-53
2021/12/04 03:02:31;;;;;;;18.25;7.28;;;;;;;0.37;100.00;96710.09;4971061;28;20105;-53
2021/12/04 03:05:00;;;;;;;15.82;7.43;;;;;;;0.63;100.00;96697.59;4973197;28;20117;-55
2021/12/04 03:07:26;;;;;;;16.08;6.60;;;;;;;0.50;100.00;96699.59;4971456;28;20039;-53
2021/12/04 03:09:53;;;;;;;14.43;6.90;;;;;;;0.58;100.00;96690.81;4971244;28;20057;-53
2021/12/04 03:12:20;;;;;;;13.35;5.88;;;;;;;0.50;100.00;96685.03;4969664;28;20074;-54
2021/12/04 03:14:46;;;;;;;16.02;7.00;;;;;;;0.65;100.00;96685.56;4976744;28;20029;-54
2021/12/04 03:17:14;;;;;;;16.88;6.65;;;;;;;0.82;100.00;96682.59;4971718;28;20042;-54
2021/12/04 03:19:39;;;;;;;17.15;6.85;;;;;;;0.44;100.00;96677.47;4971387;28;20118;-54
2021/12/04 03:22:06;;;;;;;14.27;6.63;;;;;;;0.71;100.00;96672.59;4969889;28;20125;-53
2021/12/04 03:24:35;;;;;;;13.80;6.22;;;;;;;0.60;100.00;96672.00;4971222;28;20026;-53
2021/12/04 03:27:00;;;;;;;14.95;6.47;;;;;;;0.72;100.00;96676.84;4971882;28;20650;-53
2021/12/04 03:29:28;;;;;;;14.25;5.85;;;;;;;0.50;100.00;96666.22;4973276;28;20026;-54
2021/12/04 03:42:39;;;;;;;16.70;7.28;;;;;;;0.91;100.00;96642.16;4969933;28;20101;-54
2021/12/04 03:45:08;;;;;;;13.45;5.90;;;;;;;0.68;100.00;96644.41;4971376;28;20125;-54
2021/12/04 03:47:34;;;;;;;14.90;7.80;;;;;;;0.30;100.00;96630.75;4968778;28;20050;-54
2021/12/04 03:49:59;;;;;;;12.90;5.75;;;;;;;0.60;100.00;96625.81;4971218;28;20056;-53
2021/12/04 03:52:25;;;;;;;18.67;6.53;;;;;;;0.71;100.00;96621.25;4968473;28;20046;-53
2021/12/04 03:54:50;;;;;;;15.20;6.22;;;;;;;1.12;100.00;96629.66;4971062;28;20040;-54
2021/12/04 03:57:16;;;;;;;15.55;7.35;;;;;;;1.05;100.00;96628.97;4971277;28;20044;-54
2021/12/04 03:59:46;;;;;;;14.93;7.15;;;;;;;1.05;99.67;96628.13;4970042;28;20034;-54
2021/12/04 04:02:14;;;;;;;16.05;7.15;;;;;;;1.01;100.00;96611.97;4971046;28;20085;-53
2021/12/04 04:04:40;;;;;;;13.43;6.57;;;;;;;0.67;100.00;96609.38;4970341;28;20173;-54
2021/12/04 04:07:06;;;;;;;13.52;6.00;;;;;;;0.90;100.00;96609.66;4971490;28;20039;-54
2021/12/04 04:09:32;;;;;;;14.02;6.85;;;;;;;0.72;100.00;96599.84;4969868;28;20023;-54
2021/12/04 04:11:58;;;;;;;14.85;6.82;;;;;;;0.61;100.00;96604.38;4970001;28;20049;-54
2021/12/04 04:14:24;;;;;;;14.80;6.68;;;;;;;0.60;100.00;96590.72;4971370;28;20100;-54
2021/12/04 04:16:53;;;;;;;15.02;6.57;;;;;;;0.86;100.00;96597.78;4971144;28;20034;-53
2021/12/04 04:19:18;;;;;;;16.13;7.50;;;;;;;0.90;100.00;96586.56;4970828;28;20055;-54
2021/12/04 04:21:43;;;;;;;16.05;7.13;;;;;;;0.88;100.00;96575.50;4970543;28;20905;-55
2021/12/04 04:24:10;;;;;;;14.40;6.88;;;;;;;0.67;100.00;96570.91;4966618;28;20026;-53
2021/12/04 04:26:37;;;;;;;13.65;6.68;;;;;;;0.58;100.00;96569.38;4969639;28;20045;-54
2021/12/04 04:29:04;;;;;;;15.27;6.97;;;;;;;1.00;100.00;96560.66;4970132;28;20106;-53
2021/12/04 04:31:30;;;;;;;14.38;6.82;;;;;;;0.90;100.00;96553.19;4970715;28;20939;-53
2021/12/04 04:34:02;;;;;;;14.65;6.75;;;;;;;1.00;100.00;96553.78;4971986;28;20035;-55
2021/12/04 05:00:50;;;;;;;12.35;5.32;;;;;;;1.58;99.48;96529.94;4971468;28;20122;-54
2021/12/04 05:11:33;;;;;;;13.40;6.03;;;;;;;1.65;99.39;96524.59;4971587;28;20045;-54
2021/12/04 05:13:58;;;;;;;16.15;6.78;;;;;;;1.32;100.00;96524.69;4972262;28;20034;-53
2021/12/04 05:16:29;;;;;;;12.13;6.40;;;;;;;1.04;100.00;96523.75;4970740;28;20030;-53
2021/12/04 05:19:01;;;;;;;11.43;5.95;;;;;;;1.33;100.00;96510.94;4977293;28;20150;-54
2021/12/04 05:21:26;;;;;;;12.18;5.93;;;;;;;1.27;100.00;96511.13;4976634;28;20026;-53
2021/12/04 05:23:54;;;;;;;13.15;6.18;;;;;;;1.23;100.00;96504.41;4976476;28;20050;-54
2021/12/04 05:26:28;;;;;;;12.60;6.00;;;;;;;1.28;100.00;96502.50;4975325;28;20041;-53
2021/12/04 05:28:56;;;;;;;14.98;6.72;;;;;;;1.70;98.67;96515.00;4975647;28;20800;-54
2021/12/04 05:31:21;;;;;;;11.70;5.38;;;;;;;1.15;100.00;96514.00;4982655;28;20039;-54
2021/12/04 05:33:48;;;;;;;14.98;6.13;;;;;;;1.56;99.84;96512.00;4975643;28;20058;-54
2021/12/04 05:36:14;;;;;;;13.27;5.65;;;;;;;1.76;97.57;96518.28;4975064;28;20519;-53
2021/12/04 05:38:41;;;;;;;15.45;6.15;;;;;;;1.51;99.01;96512.16;4974769;28;20026;-53
2021/12/04 05:41:07;;;;;;;12.77;5.97;;;;;;;1.71;98.46;96521.00;4973727;28;20050;-54
2021/12/04 05:43:34;;;;;;;13.82;5.90;;;;;;;1.83;98.40;96522.38;4975107;28;20038;-53
2021/12/04 05:46:09;;;;;;;12.57;6.15;;;;;;;1.99;97.75;96522.75;4972578;28;20067;-54
2021/12/04 05:48:43;;;;;;;13.27;6.22;;;;;;;1.69;99.74;96518.50;4975025;28;20034;-54
2021/12/04 05:56:14;;;;;;;13.48;6.10;;;;;;;1.86;97.72;96512.00;4973523;28;20070;-53
2021/12/04 05:58:40;;;;;;;12.48;5.97;;;;;;;1.93;97.77;96513.50;4973041;28;20081;-53
2021/12/04 06:01:07;;;;;;;12.05;6.07;;;;;;;1.88;98.34;96508.47;4976680;28;20047;-54
2021/12/04 06:03:33;;;;;;;16.67;6.60;;;;;;;1.91;98.64;96499.81;4975620;28;20038;-54
2021/12/04 06:05:59;;;;;;;13.68;5.93;;;;;;;1.94;97.83;96497.16;4973266;28;20428;-54
2021/12/04 06:08:25;;;;;;;10.20;5.50;;;;;;;1.73;99.31;96504.66;4975066;28;20378;-55
2021/12/04 06:10:51;;;;;;;11.05;5.10;;;;;;;1.71;100.00;96506.44;4972182;28;20054;-54
2021/12/04 06:13:17;;;;;;;10.88;5.30;;;;;;;1.82;98.82;96497.53;4975354;28;20035;-54
2021/12/04 06:15:42;;;;;;;10.13;5.15;;;;;;;1.96;98.93;96489.41;4972155;28;20632;-54
2021/12/04 06:18:09;;;;;;;12.02;5.60;;;;;;;2.00;99.12;96494.41;4972345;28;20118;-54
2021/12/04 06:23:20;;;;;;;12.38;6.07;;;;;;;1.46;100.00;96490.88;4971698;28;20117;-54
2021/12/04 06:25:45;;;;;;;14.38;6.55;;;;;;;1.73;100.00;96490.97;4972788;28;20129;-55
2021/12/04 06:28:11;;;;;;;9.48;4.38;;;;;;;1.58;100.00;96494.84;4973952;28;20059;-54
2021/12/04 06:30:39;;;;;;;12.30;5.72;;;;;;;1.86;100.00;96489.69;4971497;28;20042;-54
2021/12/04 06:33:07;;;;;;;13.38;6.13;;;;;;;1.76;100.00;96492.59;4970521;28;20070;-54
2021/12/04 06:35:36;;;;;;;11.38;5.57;;;;;;;1.80;100.00;96489.03;4971274;28;20045;-54
2021/12/04 06:38:02;;;;;;;10.95;4.88;;;;;;;1.74;100.00;96492.63;4970759;28;20172;-55
2021/12/04 06:40:27;;;;;;;10.68;5.22;;;;;;;1.66;100.00;96495.44;4969127;28;20512;-54
2021/12/04 06:42:58;;;;;;;19.05;5.55;;;;;;;1.53;100.00;96496.69;4972741;28;20034;-55
2021/12/04 06:45:25;;;;;;;12.27;5.50;;;;;;;1.50;100.00;96491.63;4969680;28;20030;-54
2021/12/04 06:47:57;;;;;;;12.90;6.38;;;;;;;1.41;100.00;96486.75;4972261;28;20489;-55
2021/12/04 06:51:09;;;;;;;11.30;5.78;;;;;;;1.70;100.00;96488.47;4970116;28;20713;-55
2021/12/04 06:55:44;;;;;;;9.93;5.40;;;;;;;1.61;100.00;96486.19;4973023;28;20034;-55
2021/12/04 06:58:10;;;;;;;14.02;5.80;;;;;;;1.88;100.00;96484.50;4972109;28;20076;-55
2021/12/04 07:00:35;;;;;;;10.27;5.00;;;;;;;2.04;100.00;96482.28;4969892;28;20050;-55
2021/12/04 07:03:01;;;;;;;12.13;5.72;;;;;;;1.91;100.00;96476.69;4969589;28;20109;-54
2021/12/04 07:05:26;;;;;;;11.23;5.25;;;;;;;2.02;100.00;96468.63;4973058;28;20046;-55
2021/12/04 07:07:52;;;;;;;10.38;5.05;;;;;;;2.17;98.61;96467.31;4973524;28;20355;-55
2021/12/04 07:10:17;;;;;;;11.50;5.38;;;;;;;1.53;100.00;96471.81;4971168;28;20076;-56
2021/12/04 07:12:43;;;;;;;10.48;5.20;;;;;;;1.59;100.00;96465.66;4971156;28;20091;-55
2021/12/04 07:15:10;;;;;;;12.55;5.78;;;;;;;1.66;100.00;96456.06;4969310;28;20045;-55
2021/12/04 07:17:36;;;;;;;11.57;5.55;;;;;;;1.65;100.00;96454.34;4970596;28;20034;-54
2021/12/04 07:20:06;;;;;;;9.95;5.03;;;;;;;1.50;100.00;96459.06;4970007;28;20014;-55
2021/12/04 07:22:32;;;;;;;10.80;5.47;;;;;;;1.25;100.00;96443.53;4970992;28;20031;-54
2021/12/04 07:24:58;;;;;;;11.50;6.05;;;;;;;1.52;100.00;96444.44;4970273;28;20090;-54
2021/12/04 07:27:24;;;;;;;12.82;6.07;;;;;;;1.58;100.00;96443.44;4971467;28;20058;-55
2021/12/04 07:29:50;;;;;;;13.77;5.78;;;;;;;1.60;100.00;96441.66;4970526;28;20460;-55
2021/12/04 07:32:15;;;;;;;14.18;5.78;;;;;;;1.38;100.00;96448.31;4970950;28;20504;-55
2021/12/04 07:34:41;;;;;;;10.55;5.50;;;;;;;1.66;100.00;96433.75;4971391;28;20035;-54
2021/12/04 07:37:06;;;;;;;13.25;6.00;;;;;;;1.89;100.00;96427.03;4970717;28;20043;-55
2021/12/04 07:39:32;;;;;;;11.50;4.97;;;;;;;2.03;100.00;96435.16;4971008;28;20547;-55
2021/12/04 07:41:57;;;;;;;17.73;6.10;;;;;;;1.70;100.00;96427.63;4971498;28;20527;-54
2021/12/04 07:44:23;;;;;;;11.95;5.43;;;;;;;2.03;100.00;96427.44;4970810;28;20124;-55
2021/12/04 07:46:48;;;;;;;12.60;5.82;;;;;;;1.64;100.00;96422.69;4969382;28;20053;-55
2021/12/04 07:49:14;;;;;;;16.75;6.40;;;;;;;1.53;100.00;96422.19;4970318;28;20702;-55
2021/12/04 07:51:40;;;;;;;10.90;5.45;;;;;;;1.79;100.00;96426.50;4971445;28;20037;-54
2021/12/04 07:54:05;;;;;;;15.02;6.32;;;;;;;1.82;100.00;96425.56;4971006;28;20030;-54
2021/12/04 07:56:31;;;;;;;11.70;5.38;;;;;;;2.07;100.00;96416.16;4978182;28;20104;-55
2021/12/04 07:58:57;;;;;;;12.93;5.97;;;;;;;1.83;100.00;96409.25;4971114;28;20037;-55
2021/12/04 08:01:24;;;;;;;14.52;5.55;;;;;;;2.09;100.00;96414.38;4970735;28;20773;-55
2021/12/04 08:03:49;;;;;;;12.85;5.40;;;;;;;1.96;100.00;96413.09;4969361;28;20507;-55
2021/12/04 08:06:15;;;;;;;14.27;5.97;;;;;;;1.77;100.00;96409.47;4971098;28;20047;-54
2021/12/04 08:08:40;;;;;;;9.35;3.88;;;;;;;2.36;100.00;96398.94;4971326;28;20467;-54
2021/12/04 08:11:06;;;;;;;10.98;5.70;;;;;;;2.30;99.98;96401.72;4969265;28;20050;-55
2021/12/04 08:13:32;;;;;;;12.02;5.03;;;;;;;1.98;100.00;96406.19;4968936;28;20058;-54
2021/12/04 08:15:57;;;;;;;11.75;5.82;;;;;;;2.33;100.00;96399.03;4980365;28;20161;-55
2021/12/04 08:18:23;;;;;;;11.88;5.78;;;;;;;2.44;100.00;96398.66;4973959;28;20106;-54
2021/12/04 08:20:49;;;;;;;13.55;5.93;;;;;;;2.49;100.00;96386.50;4974999;28;20427;-54
2021/12/04 08:23:17;;;;;;;12.75;5.40;;;;;;;2.39;100.00;96391.13;4974299;28;20062;-55
2021/12/04 08:25:43;;;;;;;10.38;5.10;;;;;;;2.43;100.00;96381.56;4973488;28;20038;-55
2021/12/04 08:28:09;;;;;;;12.38;5.30;;;;;;;2.78;99.35;96377.75;4974686;28;20056;-54
2021/12/04 08:30:39;;;;;;;12.77;6.05;;;;;;;2.72;100.00;96371.97;4972391;28;20041;-54
2021/12/04 08:33:04;;;;;;;12.95;5.82;;;;;;;2.87;100.00;96379.16;4974922;28;20118;-54
2021/12/04 08:35:35;;;;;;;9.93;5.45;;;;;;;3.04;100.00;96375.94;4975904;28;20034;-54
2021/12/04 08:38:01;;;;;;;12.45;6.00;;;;;;;3.20;99.11;96384.78;4976191;28;20030;-54
2021/12/04 08:40:28;;;;;;;12.52;5.05;;;;;;;3.06;98.57;96384.47;4974481;28;20162;-55
2021/12/04 08:42:54;;;;;;;12.02;4.50;;;;;;;2.97;98.97;96392.53;4974843;28;20042;-54
2021/12/04 08:45:19;;;;;;;10.13;5.10;;;;;;;3.32;97.24;96385.22;4974413;28;20027;-54
2021/12/04 08:47:45;;;;;;;10.50;4.85;;;;;;;3.18;97.81;96386.59;4974328;28;20126;-54
2021/12/04 08:50:17;;;;;;;9.95;5.22;;;;;;;3.24;97.64;96386.34;4973027;28;20022;-56
2021/12/04 08:52:43;;;;;;;8.88;4.50;;;;;;;3.18;98.34;96381.44;4972646;28;20029;-54
2021/12/04 08:55:09;;;;;;;11.52;4.85;;;;;;;3.09;98.20;96386.94;4973509;28;20038;-53
2021/12/04 08:57:34;;;;;;;11.80;5.40;;;;;;;3.27;98.35;96375.94;4974306;28;20033;-54
2021/12/04 09:00:00;;;;;;;11.98;5.30;;;;;;;3.16;99.17;96378.09;4973707;28;20026;-54
2021/12/04 09:02:26;;;;;;;9.25;5.13;;;;;;;3.07;99.28;96389.56;4972338;28;20096;-55
2021/12/04 09:04:54;;;;;;;9.45;5.00;;;;;;;3.41;98.71;96388.28;4974364;28;20064;-54
2021/12/04 09:07:20;;;;;;;10.45;4.50;;;;;;;3.58;95.69;96384.22;4972650;28;20050;-54
2021/12/04 09:09:47;;;;;;;10.75;4.47;;;;;;;3.15;97.44;96386.69;4976617;28;20030;-54
2021/12/04 09:12:13;;;;;;;10.15;5.65;;;;;;;3.80;97.55;96379.88;4974040;28;20042;-54
2021/12/04 09:14:41;;;;;;;9.93;5.28;;;;;;;3.64;95.17;96384.81;4972071;28;20022;-58
2021/12/04 09:17:09;;;;;;;10.93;5.00;;;;;;;3.64;94.34;96387.41;4970942;28;20039;-55
2021/12/04 09:19:34;;;;;;;12.45;5.95;;;;;;;3.75;95.61;96379.25;4970028;28;20177;-56
2021/12/04 09:22:00;;;;;;;10.55;5.38;;;;;;;3.70;94.86;96377.75;4972068;28;20441;-55
2021/12/04 09:24:35;;;;;;;12.18;5.22;;;;;;;3.59;94.64;96373.84;4971526;28;20107;-55
2021/12/04 10:16:01;;;;;;;11.73;5.97;;;;;;;4.08;97.27;96316.00;4968908;28;20045;-56
2021/12/04 10:33:52;;;;;;;15.23;8.05;;;;;;;3.69;100.00;96288.41;4970094;28;20036;-56
2021/12/04 10:36:33;;;;;;;18.17;8.90;;;;;;;3.66;100.00;96279.06;4969495;28;20035;-56
2021/12/04 10:39:00;;;;;;;26.92;8.55;;;;;;;3.71;100.00;96281.44;4970776;28;20599;-55
2021/12/04 10:41:39;;;;;;;23.95;9.27;;;;;;;3.73;100.00;96274.47;4970619;28;20039;-55
2021/12/04 10:44:19;;;;;;;18.58;8.65;;;;;;;4.08;100.00;96270.44;4971779;28;20038;-55
2021/12/04 10:47:12;;;;;;;19.13;8.20;;;;;;;3.89;100.00;96270.34;4971297;28;20456;-54
2021/12/04 10:49:55;;;;;;;22.48;8.93;;;;;;;3.51;100.00;96257.31;4970441;28;20022;-55
2021/12/04 10:55:56;;;;;;;17.42;8.68;;;;;;;3.88;100.00;96258.38;4972625;28;20037;-54
2021/12/04 11:01:44;;;;;;;19.38;8.70;;;;;;;3.61;100.00;96240.56;4970412;28;20050;-54
2021/12/04 11:04:37;;;;;;;20.48;9.40;;;;;;;3.68;100.00;96236.00;4968779;28;20081;-56
2021/12/04 11:07:57;;;;;;;20.27;9.07;;;;;;;3.76;100.00;96230.50;4968758;28;20062;-55
2021/12/04 11:26:47;;;;;;;20.17;9.57;;;;;;;4.20;100.00;96222.59;4968593;28;20035;-55
2021/12/04 11:38:02;;;;;;;25.30;9.77;;;;;;;3.91;100.00;96198.91;4969514;28;20130;-55
2021/12/04 11:43:30;;;;;;;23.48;9.35;;;;;;;4.04;100.00;96187.16;4970858;28;20034;-55
2021/12/04 11:48:35;;;;;;;24.63;9.93;;;;;;;4.09;100.00;96189.53;4970644;28;20036;-55
2021/12/04 11:51:03;;;;;;;21.52;8.88;;;;;;;3.95;100.00;96179.84;4981266;28;20262;-55
2021/12/04 11:53:32;;;;;;;21.00;9.35;;;;;;;4.04;100.00;96171.69;4975429;28;20062;-57
2021/12/04 11:55:58;;;;;;;20.75;9.48;;;;;;;4.14;100.00;96166.94;4970129;28;20153;-55
2021/12/04 11:58:31;;;;;;;26.70;10.02;;;;;;;4.01;100.00;96176.13;4973075;28;20061;-55
2021/12/04 12:01:05;;;;;;;24.65;9.85;;;;;;;4.02;100.00;96163.16;4972393;28;20628;-56
2021/12/04 12:03:36;;;;;;;26.65;10.85;;;;;;;3.94;100.00;96159.25;4972652;28;20138;-55
2021/12/04 12:06:09;;;;;;;23.05;9.50;;;;;;;4.14;100.00;96155.78;4975209;28;20096;-55
2021/12/04 12:08:45;;;;;;;25.15;10.43;;;;;;;4.06;100.00;96153.53;4975364;28;20085;-55
2021/12/04 12:11:11;;;;;;;31.73;12.13;;;;;;;4.13;100.00;96146.38;4974373;28;20042;-55
2021/12/04 12:13:38;;;;;;;20.88;9.77;;;;;;;4.19;100.00;96146.06;4971758;28;20034;-54
2021/12/04 12:16:04;;;;;;;27.52;10.73;;;;;;;3.96;100.00;96135.06;4970160;28;20041;-54
2021/12/04 12:18:29;;;;;;;24.02;10.32;;;;;;;3.90;100.00;96114.72;4972831;28;20030;-54
2021/12/04 12:21:08;;;;;;;23.58;10.30;;;;;;;3.93;100.00;96122.28;4973434;28;20057;-54
2021/12/04 12:23:34;;;;;;;26.13;11.00;;;;;;;3.76;100.00;96112.72;4977785;28;20026;-54
2021/12/04 12:26:16;;;;;;;33.97;13.25;;;;;;;4.07;100.00;96113.94;4970490;28;20054;-56
2021/12/04 12:36:02;;;;;;;22.67;10.50;;;;;;;4.46;100.00;96101.84;4978907;28;20534;-54
2021/12/04 12:37:29;;;;;;;20.60;8.82;;;;;;;4.44;100.00;96100.16;4974773;28;20738;-54
2021/12/04 12:40:08;;;;;;;24.65;10.75;;;;;;;4.29;100.00;96093.16;4975734;28;20019;-54
2021/12/04 12:42:37;;;;;;;20.98;7.63;;;;;;;4.12;100.00;96095.66;4973278;28;20076;-54
2021/12/04 12:45:35;;;;;;;19.15;8.35;;;;;;;4.24;100.00;96100.25;4976357;28;20019;-54
2021/12/04 12:48:07;;;;;;;22.08;9.82;;;;;;;4.37;100.00;96083.28;4975869;28;20121;-54
2021/12/04 12:50:39;;;;;;;20.27;9.60;;;;;;;4.25;100.00;96071.81;4978685;28;20038;-54
2021/12/04 12:53:07;;;;;;;37.08;13.77;;;;;;;4.10;100.00;96076.84;4976226;28;20049;-53
2021/12/04 12:55:35;;;;;;;24.08;9.52;;;;;;;4.28;100.00;96070.81;4963081;28;20051;-55
2021/12/04 12:58:25;;;;;;;18.70;8.98;;;;;;;4.20;100.00;96063.44;4976642;28;20106;-55
2021/12/04 13:12:48;;;;;;;17.02;7.50;;;;;;;4.85;100.00;96044.03;4977862;28;20120;-54
2021/12/04 13:15:48;;;;;;;21.85;10.60;;;;;;;4.69;100.00;96047.38;4977520;28;20022;-54
2021/12/04 13:18:22;;;;;;;22.77;11.05;;;;;;;4.72;100.00;96054.94;4976876;28;21001;-55
2021/12/04 13:20:51;;;;;;;19.00;9.30;;;;;;;4.62;100.00;96056.34;4976881;28;20049;-55
2021/12/04 13:23:19;;;;;;;20.98;9.75;;;;;;;4.65;100.00;96051.03;4975217;28;20116;-56
2021/12/04 13:26:25;;;;;;;27.77;11.75;;;;;;;4.07;100.00;96051.19;4975062;28;20046;-54
2021/12/04 13:28:51;;;;;;;17.40;8.52;;;;;;;4.26;100.00;96046.84;4983905;28;20117;-60
2021/12/04 13:33:53;;;;;;;17.80;7.70;;;;;;;4.18;100.00;96038.63;5431399;23;20049;-52
2021/12/04 13:36:26;;;;;;;17.98;7.32;;;;;;;4.10;100.00;96040.72;4989265;28;20073;-51
2021/12/04 13:39:13;;;;;;;23.67;8.60;;;;;;;4.51;100.00;96040.53;4989232;28;20601;-50
2021/12/04 13:41:41;;;;;;;22.33;10.07;;;;;;;4.32;100.00;96033.66;4992254;28;20710;-52
2021/12/04 13:44:09;;;;;;;18.35;8.40;;;;;;;3.93;100.00;96038.94;4979516;28;20616;-52
2021/12/04 13:46:44;;;;;;;17.52;8.00;;;;;;;4.21;100.00;96038.50;4974518;28;20189;-52
2021/12/04 13:49:11;;;;;;;15.50;6.63;;;;;;;4.26;100.00;96039.09;4973603;28;20023;-52
2021/12/04 13:51:38;;;;;;;15.80;7.38;;;;;;;4.31;100.00;96033.72;4969374;28;20042;-52
2021/12/04 13:54:04;;;;;;;17.52;8.68;;;;;;;4.38;100.00;96037.69;4972198;28;20045;-52
2021/12/04 13:56:33;;;;;;;19.27;8.98;;;;;;;4.10;100.00;96030.41;4971954;28;20137;-52
2021/12/04 13:59:01;;;;;;;20.70;9.93;;;;;;;4.02;100.00;96029.00;4972148;28;20039;-52
2021/12/04 14:01:28;;;;;;;20.98;8.98;;;;;;;3.83;100.00;96034.19;4980566;28;20034;-52
2021/12/04 14:03:56;;;;;;;23.25;10.40;;;;;;;3.72;100.00;96026.09;4972632;28;20061;-51
2021/12/04 14:06:21;;;;;;;19.17;7.63;;;;;;;4.04;100.00;96028.94;4973270;28;20035;-52
2021/12/04 14:09:05;;;;;;;17.92;8.50;;;;;;;3.93;100.00;96020.88;4974357;28;20030;-52
2021/12/04 14:11:35;;;;;;;20.80;9.48;;;;;;;3.85;100.00;96016.06;4975331;28;20053;-52
2021/12/04 14:14:23;;;;;;;23.48;9.45;;;;;;;3.98;100.00;96017.16;4971315;28;20034;-52
2021/12/04 14:16:51;;;;;;;21.67;9.50;;;;;;;4.22;100.00;96014.34;4974060;28;20218;-52
2021/12/04 14:19:29;;;;;;;22.25;10.10;;;;;;;4.42;100.00;96011.66;4971209;28;20133;-52
2021/12/04 14:22:01;;;;;;;21.77;9.32;;;;;;;4.17;100.00;96008.56;4973261;28;20030;-52
2021/12/04 14:24:30;;;;;;;26.02;10.13;;;;;;;4.46;100.00;96008.94;4971278;28;20019;-54
2021/12/04 14:26:59;;;;;;;24.83;10.65;;;;;;;4.44;100.00;96004.66;4973917;28;20039;-53
2021/12/04 14:29:30;;;;;;;24.15;11.43;;;;;;;4.26;100.00;96005.56;4974610;28;20045;-53
2021/12/04 14:31:57;;;;;;;19.77;9.25;;;;;;;4.56;100.00;96002.41;4974701;28;20526;-54
2021/12/04 14:34:25;;;;;;;23.27;9.98;;;;;;;4.40;100.00;96010.88;4973094;28;20061;-52
2021/12/04 14:37:12;;;;;;;28.30;12.80;;;;;;;4.10;100.00;95999.44;4982554;28;20042;-52
2021/12/04 14:39:46;;;;;;;23.08;9.85;;;;;;;4.38;100.00;95996.41;4974377;28;20027;-52